Decoded Metar for KIOW (IOWA CITY in IA, USA) (IATA:IOW) | Meteo·Mobile Aviation Weather
aviador You're here:

KIOW Decoded Metar

IOWA CITY in IA, USA
Report Time2018-09-22 18:52:00
UTC Time2018-09-22 19:30:24
Flight Rules vfr VFR
Wind160° at 07 kt
W.Decomp.*RWY 12: 5.5 kt HW 4.3 kt RCW
RWY 07: 0.2 kt HW 7.0 kt RCW
W.Rank160° ranks 7
Current wind is below 160° avg. (8.1)
Visibility9999 m
Phenomena:N/A
Clouds:N/A
Expected CloudBase > 4,000 ft AGL from Temp-Dew spread
CeilingNone
Temp19°C (ISA +5)
Dew Point09°C (52% RH)
AAT16.2°C
QNH1024 hPa
Density Alt1,056 ft
Elevation650 ft
Report Wrong Elevation
Raw Report
KIOW 221852Z AUTO 16007KT 10SM CLR 19/09 A3025 RMK AO2 SLP244
T01940089=

Extra information for KIOW:More info

Metar Taf Metar & Taf Last 4 Metars F.Rules Stats Wind Profile Meteogram Temp Stats Airport Information Weather charts Add Link Nearby VenuesMetar ALERT Operation Metar Decoded Social comments

AIRNAV info for KIOW